createdAt,value
2022-11-28T00:01:56.834Z,21.78
2022-11-28T00:04:26.034Z,21.79
2022-11-28T00:06:56.891Z,21.79
2022-11-28T00:09:26.446Z,21.79
2022-11-28T00:11:55.715Z,21.79
2022-11-28T00:14:23.689Z,21.77
2022-11-28T00:16:52.894Z,21.78
2022-11-28T00:19:22.111Z,21.78
2022-11-28T00:21:51.093Z,21.77
2022-11-28T00:24:21.509Z,21.78
2022-11-28T00:26:50.473Z,21.77
2022-11-28T00:29:18.493Z,21.76
2022-11-28T00:31:47.375Z,21.76
2022-11-28T00:34:16.963Z,21.76
2022-11-28T00:36:47.259Z,21.76
2022-11-28T00:39:16.541Z,21.77
2022-11-28T00:41:45.901Z,21.76
2022-11-28T00:44:14.019Z,21.75
2022-11-28T00:46:41.996Z,21.76
2022-11-28T00:49:09.944Z,21.74
2022-11-28T00:51:38.259Z,21.74
2022-11-28T00:54:06.700Z,21.74
2022-11-28T00:56:35.752Z,21.74
2022-11-28T00:59:05.301Z,21.75
2022-11-28T01:01:34.150Z,21.74
2022-11-28T01:04:05.804Z,21.73
2022-11-28T01:06:36.592Z,21.74
2022-11-28T01:09:06.980Z,21.75
2022-11-28T01:11:36.211Z,21.76
2022-11-28T01:14:06.674Z,21.75
2022-11-28T01:16:35.867Z,21.76
2022-11-28T01:19:05.567Z,21.74
2022-11-28T01:21:34.677Z,21.74
2022-11-28T01:24:03.650Z,21.76
2022-11-28T01:26:33.075Z,21.76
2022-11-28T01:29:02.177Z,21.77
2022-11-28T01:31:31.597Z,21.76
2022-11-28T01:33:59.941Z,21.74
2022-11-28T01:36:29.097Z,21.73
2022-11-28T01:38:58.384Z,21.73
2022-11-28T01:41:27.249Z,21.74
2022-11-28T01:44:07.552Z,21.75
2022-11-28T01:46:37.335Z,21.73
2022-11-28T01:49:08.911Z,21.73
2022-11-28T01:51:36.845Z,21.73
2022-11-28T01:54:06.104Z,21.72
2022-11-28T01:56:39.558Z,21.72
2022-11-28T01:59:08.707Z,21.71
2022-11-28T02:01:38.149Z,21.73
2022-11-28T02:04:06.297Z,21.73
2022-11-28T02:06:34.253Z,21.72
2022-11-28T02:09:02.181Z,21.72
2022-11-28T02:11:40.108Z,21.73
2022-11-28T02:14:14.535Z,21.72
2022-11-28T02:16:54.996Z,21.73
2022-11-28T02:19:52.358Z,21.73
2022-11-28T02:22:21.950Z,21.72
2022-11-28T02:25:02.552Z,21.75
2022-11-28T02:27:38.903Z,21.73
2022-11-28T02:30:25.428Z,21.76
2022-11-28T02:33:06.348Z,21.76
2022-11-28T02:35:37.546Z,21.75
2022-11-28T02:38:11.518Z,21.74
2022-11-28T02:40:42.552Z,21.73
2022-11-28T02:43:15.429Z,21.73
2022-11-28T02:45:48.001Z,21.71
2022-11-28T02:48:25.816Z,21.72
2022-11-28T02:50:58.192Z,21.72
2022-11-28T02:53:27.446Z,21.71
2022-11-28T02:55:56.749Z,21.72
2022-11-28T02:58:24.684Z,21.71
2022-11-28T03:00:53.766Z,21.72
2022-11-28T03:03:32.607Z,21.72
2022-11-28T03:06:01.609Z,21.71
2022-11-28T03:08:43.855Z,21.72
2022-11-28T03:11:19.049Z,21.71
2022-11-28T03:13:53.511Z,21.71
2022-11-28T03:16:31.863Z,21.72
2022-11-28T03:19:06.611Z,21.72
2022-11-28T03:21:38.015Z,21.73
2022-11-28T03:24:11.573Z,21.72
2022-11-28T03:26:48.381Z,21.73
2022-11-28T03:29:18.166Z,21.74
2022-11-28T03:31:48.378Z,21.74
2022-11-28T03:34:20.412Z,21.73
2022-11-28T03:36:51.695Z,21.74
2022-11-28T03:39:22.068Z,21.76
2022-11-28T03:41:52.636Z,21.76
2022-11-28T03:44:26.556Z,21.76
2022-11-28T03:46:56.536Z,21.76
2022-11-28T03:49:31.959Z,21.76
2022-11-28T03:52:02.999Z,21.73
2022-11-28T03:54:35.267Z,21.76
2022-11-28T03:57:08.943Z,21.73
2022-11-28T03:59:38.858Z,21.74
2022-11-28T04:02:12.423Z,21.74
2022-11-28T04:04:47.021Z,21.73
2022-11-28T04:07:16.365Z,21.73
2022-11-28T04:09:46.466Z,21.72
2022-11-28T04:12:19.204Z,21.73
2022-11-28T04:14:48.134Z,21.73
2022-11-28T04:17:19.054Z,21.72
2022-11-28T04:19:50.063Z,21.72
2022-11-28T04:22:20.156Z,21.71
2022-11-28T04:24:51.456Z,21.73
2022-11-28T04:27:23.442Z,21.75
2022-11-28T04:29:54.770Z,21.73
2022-11-28T04:32:23.898Z,21.74
2022-11-28T04:34:54.934Z,21.76
2022-11-28T04:37:24.259Z,21.75
2022-11-28T04:39:53.467Z,21.74
2022-11-28T04:42:23.659Z,21.76
2022-11-28T04:44:54.992Z,21.77
2022-11-28T04:47:24.120Z,21.77
2022-11-28T04:49:54.824Z,21.77
2022-11-28T04:52:26.212Z,21.77
2022-11-28T04:54:55.285Z,21.76
2022-11-28T04:57:27.858Z,21.78
2022-11-28T04:59:55.808Z,21.79
2022-11-28T05:02:23.829Z,21.78
2022-11-28T05:04:53.220Z,21.77
2022-11-28T05:07:24.232Z,21.78
2022-11-28T05:09:52.315Z,21.77
2022-11-28T05:12:21.809Z,21.77
2022-11-28T05:14:49.778Z,21.76
2022-11-28T05:17:19.271Z,21.77
2022-11-28T05:19:48.640Z,21.77
2022-11-28T05:22:17.720Z,21.77
2022-11-28T05:24:48.141Z,21.77
2022-11-28T05:27:17.656Z,21.75
2022-11-28T05:29:51.865Z,21.76
2022-11-28T05:32:20.349Z,21.76
2022-11-28T05:34:48.349Z,21.75
2022-11-28T05:37:17.685Z,21.73
2022-11-28T05:39:48.385Z,21.74
2022-11-28T05:42:17.699Z,21.76
2022-11-28T05:44:47.861Z,21.77
2022-11-28T05:47:16.949Z,21.76
2022-11-28T05:49:47.661Z,21.77
2022-11-28T05:52:17.151Z,21.77
2022-11-28T05:54:45.148Z,21.78
2022-11-28T05:57:15.909Z,21.77
2022-11-28T05:59:45.410Z,21.78
2022-11-28T06:02:15.024Z,21.78
2022-11-28T06:04:44.774Z,21.78
2022-11-28T06:07:16.418Z,21.78
2022-11-28T06:09:45.788Z,21.79
2022-11-28T06:12:16.131Z,21.79
2022-11-28T06:14:44.025Z,21.78
2022-11-28T06:17:11.966Z,21.78
2022-11-28T06:19:41.294Z,21.80
2022-11-28T06:22:09.457Z,21.79
2022-11-28T06:24:37.385Z,21.80
2022-11-28T06:27:05.569Z,21.81
2022-11-28T06:29:36.242Z,21.81
2022-11-28T06:32:04.799Z,21.81
2022-11-28T06:34:34.635Z,21.81
2022-11-28T06:37:04.017Z,21.82
2022-11-28T06:39:32.558Z,21.82
2022-11-28T06:42:00.487Z,21.82
2022-11-28T06:44:28.431Z,21.84
2022-11-28T06:46:57.781Z,21.84
2022-11-28T06:49:26.416Z,21.85
2022-11-28T06:51:54.452Z,21.85
2022-11-28T06:54:22.507Z,21.85
2022-11-28T06:56:50.605Z,21.84
2022-11-28T06:59:18.529Z,21.85
2022-11-28T07:01:46.773Z,21.86
2022-11-28T07:04:16.170Z,21.86
2022-11-28T07:06:44.901Z,21.87
2022-11-28T07:09:12.805Z,21.89
2022-11-28T07:11:41.975Z,21.90
2022-11-28T07:14:10.506Z,21.91
2022-11-28T07:16:38.498Z,21.92
2022-11-28T07:19:06.553Z,21.94
2022-11-28T07:21:35.890Z,21.96
2022-11-28T07:24:03.906Z,21.97
2022-11-28T07:26:31.902Z,21.97
2022-11-28T07:29:00.156Z,21.98
2022-11-28T07:31:32.242Z,22.00
2022-11-28T07:34:01.501Z,22.00
2022-11-28T07:36:30.345Z,22.00
2022-11-28T07:39:00.777Z,22.02
2022-11-28T07:41:28.859Z,22.02
2022-11-28T07:43:57.441Z,22.04
2022-11-28T07:46:25.430Z,22.06
2022-11-28T07:48:53.511Z,22.08
2022-11-28T07:51:22.293Z,22.09
2022-11-28T07:53:50.284Z,22.11
2022-11-28T07:56:20.770Z,22.12
2022-11-28T07:58:48.809Z,22.15
2022-11-28T08:01:17.456Z,22.16
2022-11-28T08:03:45.897Z,22.19
2022-11-28T08:06:13.866Z,22.19
2022-11-28T08:08:41.802Z,22.22
2022-11-28T08:11:10.023Z,22.23
2022-11-28T08:13:40.658Z,22.23
2022-11-28T08:16:09.472Z,22.24
2022-11-28T08:18:37.650Z,22.25
2022-11-28T08:21:06.837Z,22.28
2022-11-28T08:23:35.040Z,22.29
2022-11-28T08:26:03.040Z,22.31
2022-11-28T08:28:31.454Z,22.32
2022-11-28T08:31:02.133Z,22.32
2022-11-28T08:33:30.266Z,22.34
2022-11-28T08:35:58.283Z,22.37
2022-11-28T08:38:26.237Z,22.38
2022-11-28T08:41:01.984Z,22.37
2022-11-28T08:43:30.095Z,22.36
2022-11-28T08:45:58.189Z,22.37
2022-11-28T08:48:27.575Z,22.37
2022-11-28T08:50:55.512Z,22.36
2022-11-28T08:53:23.433Z,22.37
2022-11-28T08:55:51.401Z,22.35
2022-11-28T08:58:19.407Z,22.36
2022-11-28T09:00:47.427Z,22.36
2022-11-28T09:03:16.236Z,22.36
2022-11-28T09:05:46.300Z,22.36
2022-11-28T09:08:14.514Z,22.35
2022-11-28T09:10:42.967Z,22.32
2022-11-28T09:13:10.973Z,22.31
2022-11-28T09:15:40.734Z,22.29
2022-11-28T09:18:09.201Z,22.27
2022-11-28T09:20:37.299Z,22.25
2022-11-28T09:23:06.743Z,22.23
2022-11-28T09:25:36.054Z,22.22
2022-11-28T09:28:04.160Z,22.20
2022-11-28T09:30:32.385Z,22.19
2022-11-28T09:33:00.691Z,22.16
2022-11-28T09:35:28.645Z,22.15
2022-11-28T09:37:56.554Z,22.13
2022-11-28T09:40:27.968Z,22.13
2022-11-28T09:42:56.546Z,22.11
2022-11-28T09:45:24.808Z,22.10
2022-11-28T09:47:55.270Z,22.09
2022-11-28T09:50:25.176Z,22.09
2022-11-28T09:52:56.932Z,22.06
2022-11-28T09:55:30.886Z,22.08
2022-11-28T09:57:58.803Z,22.09
2022-11-28T10:00:38.974Z,22.09
2022-11-28T10:03:15.488Z,22.08
2022-11-28T10:05:44.679Z,22.08
2022-11-28T10:08:20.558Z,22.06
2022-11-28T10:10:54.330Z,22.08
2022-11-28T10:13:29.654Z,22.06
2022-11-28T10:16:02.488Z,22.03
2022-11-28T10:18:36.135Z,22.03
2022-11-28T10:21:05.994Z,21.99
2022-11-28T10:23:36.380Z,22.00
2022-11-28T10:26:07.231Z,22.00
2022-11-28T10:28:36.451Z,21.99
2022-11-28T10:31:07.435Z,21.97
2022-11-28T10:33:38.084Z,21.95
2022-11-28T10:36:06.563Z,21.95
2022-11-28T10:38:36.919Z,21.93
2022-11-28T10:41:09.152Z,21.92
2022-11-28T10:43:41.225Z,21.92
2022-11-28T10:46:22.597Z,21.92
2022-11-28T10:48:52.246Z,21.90
2022-11-28T10:51:27.933Z,21.91
2022-11-28T10:54:03.197Z,21.90
2022-11-28T10:56:37.420Z,21.90
2022-11-28T10:59:08.198Z,21.89
2022-11-28T11:01:39.741Z,21.90
2022-11-28T11:04:07.958Z,21.89
2022-11-28T11:06:53.815Z,21.90
2022-11-28T11:09:23.999Z,21.93
2022-11-28T11:11:55.308Z,21.93
2022-11-28T11:14:29.791Z,21.94
2022-11-28T11:16:59.605Z,21.94
2022-11-28T11:19:29.809Z,21.95
2022-11-28T11:22:03.358Z,21.95
2022-11-28T11:24:31.434Z,21.94
2022-11-28T11:27:06.638Z,21.94
2022-11-28T11:29:35.991Z,21.95
2022-11-28T11:32:06.957Z,21.93
2022-11-28T11:34:38.064Z,21.94
2022-11-28T11:37:32.168Z,21.94
2022-11-28T11:40:00.720Z,21.93
2022-11-28T11:42:30.807Z,21.94
2022-11-28T11:44:59.312Z,21.93
2022-11-28T11:47:41.454Z,21.94
2022-11-28T11:50:17.515Z,21.92
2022-11-28T11:52:45.551Z,21.93
2022-11-28T11:55:14.585Z,21.91
2022-11-28T11:57:44.905Z,21.93
2022-11-28T12:00:16.916Z,21.92
2022-11-28T12:02:46.865Z,21.94
2022-11-28T12:05:16.402Z,21.94
2022-11-28T12:07:52.281Z,21.96
2022-11-28T12:10:21.084Z,21.99
2022-11-28T12:12:51.034Z,22.01
2022-11-28T12:15:21.277Z,22.01
2022-11-28T12:17:59.312Z,22.02
2022-11-28T12:20:35.555Z,22.01
2022-11-28T12:23:10.846Z,21.99
2022-11-28T12:25:44.434Z,22.00
2022-11-28T12:28:19.535Z,22.01
2022-11-28T12:30:54.916Z,22.03
2022-11-28T12:33:30.369Z,22.09
2022-11-28T12:43:22.295Z,22.11
2022-11-28T12:45:54.370Z,22.10
2022-11-28T12:48:32.663Z,22.09
2022-11-28T12:51:02.665Z,22.06
2022-11-28T12:53:44.553Z,22.06
2022-11-28T12:56:23.437Z,22.06
2022-11-28T12:58:58.454Z,22.06
2022-11-28T13:01:35.491Z,22.08
2022-11-28T13:04:06.405Z,22.04
2022-11-28T13:06:38.204Z,22.03
2022-11-28T13:09:19.939Z,22.02
2022-11-28T13:11:54.080Z,22.02
2022-11-28T13:14:29.246Z,22.02
2022-11-28T13:17:08.999Z,22.04
2022-11-28T13:19:48.101Z,22.03
2022-11-28T13:22:23.762Z,22.04
2022-11-28T13:24:56.422Z,22.04
2022-11-28T13:27:32.992Z,22.01
2022-11-28T13:30:10.100Z,22.03
2022-11-28T13:32:40.881Z,22.01
2022-11-28T13:35:11.954Z,22.00
2022-11-28T13:45:31.717Z,21.97
2022-11-28T13:48:01.018Z,21.97
2022-11-28T13:50:36.862Z,21.96
2022-11-28T13:53:22.284Z,21.95
2022-11-28T13:55:50.296Z,21.95
2022-11-28T13:58:22.401Z,21.95
2022-11-28T14:01:10.057Z,21.94
2022-11-28T14:03:45.808Z,21.94
2022-11-28T14:06:14.511Z,21.93
2022-11-28T14:12:58.759Z,21.94
2022-11-28T14:15:30.493Z,21.93
2022-11-28T14:18:39.298Z,21.94
2022-11-28T14:20:59.859Z,21.95
2022-11-28T14:27:22.007Z,21.92
2022-11-28T14:29:51.139Z,21.93
2022-11-28T14:32:31.157Z,21.93
2022-11-28T14:35:00.954Z,21.93
2022-11-28T14:37:50.275Z,21.93
2022-11-28T14:41:06.934Z,21.92
2022-11-28T14:43:37.008Z,21.91
2022-11-28T14:46:38.863Z,21.92
2022-11-28T14:49:23.029Z,21.91
2022-11-28T14:55:44.364Z,21.92
2022-11-28T14:58:15.045Z,21.92
2022-11-28T15:00:47.453Z,21.92
2022-11-28T15:03:23.285Z,21.90
2022-11-28T15:05:51.636Z,21.90
2022-11-28T15:09:21.362Z,21.89
2022-11-28T15:12:03.381Z,21.86
2022-11-28T15:14:32.358Z,21.83
2022-11-28T15:17:03.378Z,21.78
2022-11-28T15:19:33.070Z,21.79
2022-11-28T15:22:02.417Z,21.76
2022-11-28T15:32:04.839Z,21.70
2022-11-28T15:34:33.642Z,21.68
2022-11-28T15:37:03.047Z,21.65
2022-11-28T15:39:34.927Z,21.64
2022-11-28T15:42:04.605Z,21.62
2022-11-28T15:44:32.566Z,21.58
2022-11-28T15:47:00.599Z,21.51
2022-11-28T15:49:32.344Z,21.43
2022-11-28T15:52:01.419Z,21.40
2022-11-28T15:55:15.937Z,21.35
2022-11-28T15:57:44.527Z,21.30
2022-11-28T16:00:14.179Z,21.25
2022-11-28T16:02:42.807Z,21.24
2022-11-28T16:05:13.199Z,21.27
2022-11-28T16:12:16.879Z,21.26
2022-11-28T16:14:46.011Z,21.32
2022-11-28T16:17:20.593Z,21.33
2022-11-28T16:19:51.984Z,21.32
2022-11-28T16:22:22.281Z,21.32
2022-11-28T16:24:51.729Z,21.36
2022-11-28T16:27:29.933Z,21.37
2022-11-28T16:29:57.842Z,21.38
2022-11-28T16:32:35.507Z,21.39
2022-11-28T16:35:03.980Z,21.39
2022-11-28T16:41:40.483Z,21.40
2022-11-28T16:44:12.897Z,21.40
2022-11-28T16:46:41.811Z,21.41
2022-11-28T16:49:19.565Z,21.41
2022-11-28T16:51:47.826Z,21.40
2022-11-28T16:54:38.188Z,21.41
2022-11-28T16:57:11.708Z,21.41
2022-11-28T16:59:40.574Z,21.42
2022-11-28T17:02:14.397Z,21.40
2022-11-28T17:04:47.123Z,21.38
2022-11-28T17:07:16.450Z,21.38
2022-11-28T17:09:46.265Z,21.38
2022-11-28T17:12:18.102Z,21.41
2022-11-28T17:14:47.120Z,21.41
2022-11-28T17:17:15.131Z,21.40
2022-11-28T17:19:45.473Z,21.40
2022-11-28T17:22:15.499Z,21.39
2022-11-28T17:24:45.141Z,21.40
2022-11-28T17:27:13.430Z,21.43
2022-11-28T17:29:45.255Z,21.44
2022-11-28T17:32:14.562Z,21.47
2022-11-28T17:34:44.262Z,21.50
2022-11-28T17:37:12.412Z,21.51
2022-11-28T17:40:01.008Z,21.52
2022-11-28T17:42:29.072Z,21.53
2022-11-28T17:45:01.196Z,21.54
2022-11-28T17:47:29.191Z,21.55
2022-11-28T17:49:57.802Z,21.55
2022-11-28T17:52:30.308Z,21.55
2022-11-28T17:55:20.220Z,21.53
2022-11-28T17:57:48.202Z,21.52
2022-11-28T18:00:19.031Z,21.51
2022-11-28T18:02:47.012Z,21.50
2022-11-28T18:05:15.839Z,21.47
2022-11-28T18:07:43.851Z,21.49
2022-11-28T18:10:18.934Z,21.48
2022-11-28T18:12:46.828Z,21.48
2022-11-28T18:15:15.623Z,21.46
2022-11-28T18:17:44.976Z,21.47
2022-11-28T18:20:20.518Z,21.49
2022-11-28T18:22:48.463Z,21.51
2022-11-28T18:25:54.440Z,21.54
2022-11-28T18:28:22.994Z,21.54
2022-11-28T18:30:51.721Z,21.54
2022-11-28T18:33:21.766Z,21.57
2022-11-28T18:35:51.310Z,21.59
2022-11-28T18:38:19.326Z,21.62
2022-11-28T18:40:48.213Z,21.62
2022-11-28T18:43:16.139Z,21.63
2022-11-28T18:45:44.850Z,21.63
2022-11-28T18:48:12.916Z,21.62
2022-11-28T18:50:43.001Z,21.63
2022-11-28T18:53:10.855Z,21.64
2022-11-28T18:56:17.784Z,21.64
2022-11-28T18:58:46.691Z,21.64
2022-11-28T19:01:21.559Z,21.64
2022-11-28T19:03:52.279Z,21.66
2022-11-28T19:06:23.298Z,21.67
2022-11-28T19:08:54.075Z,21.69
2022-11-28T19:11:23.244Z,21.68
2022-11-28T19:13:51.691Z,21.68
2022-11-28T19:16:22.350Z,21.68
2022-11-28T19:18:50.254Z,21.68
2022-11-28T19:21:20.263Z,21.70
2022-11-28T19:23:49.823Z,21.74
2022-11-28T19:26:19.712Z,21.84
2022-11-28T19:28:47.658Z,21.92
2022-11-28T19:31:20.764Z,21.94
2022-11-28T19:33:49.833Z,21.94
2022-11-28T19:36:18.493Z,21.99
2022-11-28T19:39:00.426Z,21.99
2022-11-28T19:41:30.212Z,21.96
2022-11-28T19:43:58.200Z,21.95
2022-11-28T19:46:31.874Z,21.92
2022-11-28T19:49:03.262Z,21.91
2022-11-28T19:51:32.063Z,21.90
2022-11-28T19:54:03.705Z,21.90
2022-11-28T19:56:33.151Z,21.88
2022-11-28T19:59:01.226Z,21.89
2022-11-28T20:01:29.939Z,21.90
2022-11-28T20:03:58.764Z,21.90
2022-11-28T20:06:30.278Z,21.90
2022-11-28T20:09:02.211Z,21.89
2022-11-28T20:11:32.284Z,21.89
2022-11-28T20:14:01.375Z,21.89
2022-11-28T20:16:30.389Z,21.89
2022-11-28T20:19:00.341Z,21.87
2022-11-28T20:21:34.779Z,21.88
2022-11-28T20:24:10.128Z,21.87
2022-11-28T20:26:40.124Z,21.87
2022-11-28T20:29:08.268Z,21.86
2022-11-28T20:31:39.340Z,21.86
2022-11-28T20:34:07.410Z,21.87
2022-11-28T20:36:37.367Z,21.86
2022-11-28T20:39:51.742Z,21.86
2022-11-28T20:42:21.918Z,21.85
2022-11-28T20:44:49.913Z,21.86
2022-11-28T20:47:19.336Z,21.86
2022-11-28T20:49:47.232Z,21.85
2022-11-28T20:52:16.355Z,21.86
2022-11-28T20:54:44.362Z,21.85
2022-11-28T20:57:21.263Z,21.85
2022-11-28T20:59:56.716Z,21.85
2022-11-28T21:02:25.729Z,21.85
2022-11-28T21:04:53.754Z,21.85
2022-11-28T21:07:23.123Z,21.85
2022-11-28T21:09:51.127Z,21.87
2022-11-28T21:12:21.354Z,21.86
2022-11-28T21:14:52.370Z,21.86
2022-11-28T21:17:21.030Z,21.85
2022-11-28T21:19:48.981Z,21.86
2022-11-28T21:22:17.675Z,21.86
2022-11-28T21:24:49.190Z,21.84
2022-11-28T21:27:18.416Z,21.86
2022-11-28T21:29:47.939Z,21.85
2022-11-28T21:32:19.359Z,21.85
2022-11-28T21:34:49.181Z,21.84
2022-11-28T21:37:17.794Z,21.84
2022-11-28T21:39:45.864Z,21.84
2022-11-28T21:42:20.209Z,21.85
2022-11-28T21:44:48.564Z,21.84
2022-11-28T21:47:18.583Z,21.83
2022-11-28T21:49:46.701Z,21.84
2022-11-28T21:52:17.279Z,21.84
2022-11-28T21:54:45.240Z,21.83
2022-11-28T21:57:14.354Z,21.84
2022-11-28T21:59:42.697Z,21.85
2022-11-28T22:02:13.513Z,21.84
2022-11-28T22:04:43.984Z,21.85
2022-11-28T22:07:12.931Z,21.85
2022-11-28T22:09:40.852Z,21.84
2022-11-28T22:12:09.790Z,21.84
2022-11-28T22:14:37.779Z,21.83
2022-11-28T22:17:06.461Z,21.82
2022-11-28T22:19:34.372Z,21.81
2022-11-28T22:22:04.478Z,21.81
2022-11-28T22:24:33.028Z,21.80
2022-11-28T22:27:01.656Z,21.80
2022-11-28T22:29:29.702Z,21.79
2022-11-28T22:32:00.436Z,21.80
2022-11-28T22:34:29.051Z,21.78
2022-11-28T22:36:57.672Z,21.78
2022-11-28T22:42:14.294Z,21.77
2022-11-28T22:44:44.976Z,21.77
2022-11-28T22:47:14.182Z,21.74
2022-11-28T22:49:42.067Z,21.74
2022-11-28T22:52:11.410Z,21.73
2022-11-28T22:54:55.962Z,21.73
2022-11-28T22:57:24.593Z,21.73
2022-11-28T22:59:52.516Z,21.72
2022-11-28T23:02:21.236Z,21.71
2022-11-28T23:04:49.225Z,21.72
2022-11-28T23:07:17.814Z,21.71
2022-11-28T23:09:45.827Z,21.71
2022-11-28T23:12:15.612Z,21.72
2022-11-28T23:14:43.836Z,21.72
2022-11-28T23:17:12.074Z,21.71
2022-11-28T23:19:40.195Z,21.72
2022-11-28T23:22:08.102Z,21.72
2022-11-28T23:24:38.483Z,21.72
2022-11-28T23:27:06.350Z,21.72
2022-11-28T23:29:35.872Z,21.71
2022-11-28T23:32:03.884Z,21.71
2022-11-28T23:34:31.876Z,21.70
2022-11-28T23:37:02.412Z,21.70
2022-11-28T23:39:30.403Z,21.69
2022-11-28T23:41:59.212Z,21.69
2022-11-28T23:44:27.136Z,21.67
2022-11-28T23:46:56.398Z,21.67
2022-11-28T23:49:24.318Z,21.67
2022-11-28T23:51:52.297Z,21.64
2022-11-28T23:54:20.392Z,21.63
2022-11-28T23:56:48.311Z,21.64
2022-11-28T23:59:16.251Z,21.62
